Time,TemperatureF,DewpointF,PressureIn,WindDirection,WindDirectionDegrees,WindSpeedMPH,WindSpeedGustMPH,Humidity,HourlyPrecipIn,Conditions,Clouds,dailyrainin,SolarRadiationWatts/m^2,SoftwareType,DateUTC
2013-05-13 00:07:00,58.1,53.0,29.98,SSW,200,7.0,8.0,83,0.00,,,0.00,0,Wunderground v.1.15,2013-05-13 07:07:00,
2013-05-13 00:18:00,58.0,53.2,29.98,South,175,3.0,5.0,84,0.00,,,0.00,0,Wunderground v.1.15,2013-05-13 07:18:00,
2013-05-13 00:28:00,57.8,53.0,29.98,South,184,3.0,4.0,84,0.00,,,0.00,0,Wunderground v.1.15,2013-05-13 07:28:00,
2013-05-13 00:38:00,57.8,53.0,29.98,SE,126,3.0,4.0,84,0.00,,,0.00,0,Wunderground v.1.15,2013-05-13 07:38:00,
2013-05-13 00:48:00,57.6,52.8,29.98,ESE,114,5.0,7.0,84,0.00,,,0.00,0,Wunderground v.1.15,2013-05-13 07:48:00,
2013-05-13 00:57:00,57.8,52.7,29.98,ESE,107,4.0,5.0,83,0.00,,,0.00,0,Wunderground v.1.15,2013-05-13 07:57:00,
2013-05-13 01:07:00,57.8,52.7,29.98,SSE,148,4.0,5.0,83,0.00,,,0.00,0,Wunderground v.1.15,2013-05-13 08:07:00,
2013-05-13 01:17:00,57.8,52.7,29.98,SSE,164,3.0,8.0,83,0.00,,,0.00,0,Wunderground v.1.15,2013-05-13 08:17:00,
2013-05-13 01:32:00,57.6,52.1,29.98,South,184,2.0,2.0,82,0.00,,,0.00,0,Wunderground v.1.15,2013-05-13 08:32:00,
2013-05-13 01:37:00,57.6,52.1,29.98,South,174,2.0,2.0,82,0.00,,,0.00,0,Wunderground v.1.15,2013-05-13 08:37:00,
2013-05-13 01:47:00,57.5,52.0,29.98,South,179,1.0,2.0,82,0.00,,,0.00,0,Wunderground v.1.15,2013-05-13 08:47:00,
2013-05-13 01:57:00,57.5,51.7,29.98,South,185,2.0,2.0,81,0.00,,,0.00,0,Wunderground v.1.15,2013-05-13 08:57:00,
2013-05-13 02:12:00,57.6,51.5,29.97,SSE,154,4.0,4.0,80,0.00,,,0.00,0,Wunderground v.1.15,2013-05-13 09:12:00,
2013-05-13 02:17:00,57.6,51.5,29.97,South,169,3.0,4.0,80,0.00,,,0.00,0,Wunderground v.1.15,2013-05-13 09:17:00,
2013-05-13 02:28:00,57.6,51.5,29.97,SSE,147,4.0,4.0,80,0.00,,,0.00,0,Wunderground v.1.15,2013-05-13 09:28:00,
2013-05-13 02:37:00,57.6,51.8,29.98,SSW,199,4.0,5.0,81,0.00,,,0.00,0,Wunderground v.1.15,2013-05-13 09:37:00,
2013-05-13 02:48:00,57.3,51.5,29.97,SSE,157,5.0,5.0,81,0.00,,,0.00,0,Wunderground v.1.15,2013-05-13 09:48:00,
2013-05-13 02:58:00,57.2,51.8,29.97,SSE,168,4.0,4.0,82,0.00,,,0.00,0,Wunderground v.1.15,2013-05-13 09:58:00,
2013-05-13 03:08:00,57.2,52.1,29.97,South,172,4.0,4.0,83,0.00,,,0.00,0,Wunderground v.1.15,2013-05-13 10:08:00,
2013-05-13 03:18:00,57.2,52.1,29.96,SSE,167,6.0,10.0,83,0.00,,,0.00,0,Wunderground v.1.15,2013-05-13 10:18:00,
2013-05-13 03:28:00,57.0,52.2,29.96,South,184,5.0,6.0,84,0.00,,,0.00,0,Wunderground v.1.15,2013-05-13 10:28:00,
2013-05-13 03:38:00,57.0,52.2,29.97,SE,140,5.0,11.0,84,0.00,,,0.00,0,Wunderground v.1.15,2013-05-13 10:38:00,
2013-05-13 03:48:00,56.7,52.2,29.97,ESE,119,5.0,6.0,85,0.00,,,0.00,0,Wunderground v.1.15,2013-05-13 10:48:00,
2013-05-13 03:57:00,56.7,52.6,29.97,SSE,162,4.0,8.0,86,0.00,,,0.00,0,Wunderground v.1.15,2013-05-13 10:57:00,
2013-05-13 04:07:00,56.6,52.5,29.96,SSW,195,3.0,4.0,86,0.00,,,0.00,0,Wunderground v.1.15,2013-05-13 11:07:00,
2013-05-13 04:17:00,56.5,52.4,29.95,SSE,150,4.0,4.0,86,0.00,,,0.00,0,Wunderground v.1.15,2013-05-13 11:17:00,
2013-05-13 04:27:00,56.5,52.7,29.95,SSW,202,2.0,7.0,87,0.00,,,0.00,0,Wunderground v.1.15,2013-05-13 11:27:00,
2013-05-13 04:37:00,56.3,52.8,29.95,SSE,152,2.0,3.0,88,0.00,,,0.00,0,Wunderground v.1.15,2013-05-13 11:37:00,
2013-05-13 04:52:00,56.3,52.8,29.96,South,176,2.0,6.0,88,0.00,,,0.00,0,Wunderground v.1.15,2013-05-13 11:52:00,
2013-05-13 04:57:00,56.3,53.1,29.96,SSW,195,2.0,6.0,89,0.00,,,0.00,0,Wunderground v.1.15,2013-05-13 11:57:00,
2013-05-13 05:07:00,56.3,53.1,29.95,SSW,199,3.0,6.0,89,0.00,,,0.00,0,Wunderground v.1.15,2013-05-13 12:07:00,
2013-05-13 05:17:00,56.3,53.1,29.96,SSW,195,4.0,7.0,89,0.00,,,0.00,0,Wunderground v.1.15,2013-05-13 12:17:00,
2013-05-13 05:27:00,56.3,52.8,29.96,South,182,1.0,3.0,88,0.00,,,0.00,0,Wunderground v.1.15,2013-05-13 12:27:00,
2013-05-13 05:38:00,56.3,52.8,29.96,SSE,160,2.0,2.0,88,0.00,,,0.00,0,Wunderground v.1.15,2013-05-13 12:38:00,
2013-05-13 06:12:00,56.7,52.2,29.95,ESE,116,4.0,4.0,85,0.00,,,0.00,11,Wunderground v.1.15,2013-05-13 13:12:00,
2013-05-13 06:22:00,56.9,51.5,29.95,ESE,112,4.0,4.0,82,0.00,,,0.00,16,Wunderground v.1.15,2013-05-13 13:22:00,
2013-05-13 06:33:00,57.2,51.1,29.95,ESE,104,3.0,3.0,80,0.00,,,0.00,25,Wunderground v.1.15,2013-05-13 13:33:00,
2013-05-13 06:38:00,57.5,51.0,29.95,SE,145,3.0,3.0,79,0.00,,,0.00,19,Wunderground v.1.15,2013-05-13 13:38:00,
2013-05-13 06:53:00,57.8,51.0,29.95,South,178,3.0,3.0,78,0.00,,,0.00,42,Wunderground v.1.15,2013-05-13 13:53:00,
2013-05-13 07:01:00,58.0,51.5,29.95,SE,133,3.0,3.0,79,0.00,,,0.00,55,Wunderground v.1.15,2013-05-13 14:01:00,
2013-05-13 07:07:00,57.8,51.0,29.95,SE,144,2.0,3.0,78,0.00,,,0.00,44,Wunderground v.1.15,2013-05-13 14:07:00,
2013-05-13 07:17:00,58.0,51.9,29.95,SE,134,3.0,6.0,80,0.00,,,0.00,70,Wunderground v.1.15,2013-05-13 14:17:00,
2013-05-13 07:27:00,57.8,51.7,29.95,SE,127,3.0,5.0,80,0.00,,,0.00,84,Wunderground v.1.15,2013-05-13 14:27:00,
2013-05-13 07:37:00,58.1,52.0,29.95,South,178,3.0,3.0,80,0.00,,,0.00,127,Wunderground v.1.15,2013-05-13 14:37:00,
2013-05-13 07:47:00,58.1,51.6,29.94,South,176,3.0,5.0,79,0.00,,,0.00,127,Wunderground v.1.15,2013-05-13 14:47:00,
2013-05-13 07:57:00,58.3,51.8,29.94,South,178,4.0,4.0,79,0.00,,,0.00,107,Wunderground v.1.15,2013-05-13 14:57:00,
2013-05-13 08:07:00,58.3,52.2,29.95,SSW,195,3.0,10.0,80,0.00,,,0.00,146,Wunderground v.1.15,2013-05-13 15:07:00,
2013-05-13 08:17:00,58.3,51.8,29.95,South,169,4.0,6.0,79,0.00,,,0.00,162,Wunderground v.1.15,2013-05-13 15:17:00,
2013-05-13 08:28:00,58.3,52.2,29.95,SSW,195,4.0,4.0,80,0.00,,,0.00,70,Wunderground v.1.15,2013-05-13 15:28:00,
2013-05-13 08:38:00,57.6,52.1,29.95,SSW,199,4.0,6.0,82,0.00,,,0.00,114,Wunderground v.1.15,2013-05-13 15:38:00,
2013-05-13 08:48:00,57.5,52.7,29.95,SSW,199,4.0,4.0,84,0.00,,,0.00,137,Wunderground v.1.15,2013-05-13 15:48:00,
2013-05-13 08:58:00,57.6,53.1,29.95,South,184,3.0,4.0,85,0.00,,,0.00,141,Wunderground v.1.15,2013-05-13 15:58:00,
2013-05-13 09:12:00,57.8,52.7,29.95,SSW,193,3.0,3.0,83,0.00,,,0.00,150,Wunderground v.1.15,2013-05-13 16:12:00,
2013-05-13 09:18:00,57.8,53.0,29.94,South,174,3.0,3.0,84,0.00,,,0.00,174,Wunderground v.1.15,2013-05-13 16:18:00,
2013-05-13 09:28:00,58.0,52.9,29.94,SE,137,2.0,3.0,83,0.00,,,0.00,125,Wunderground v.1.15,2013-05-13 16:28:00,
2013-05-13 09:38:00,58.0,52.9,29.94,SSW,198,2.0,5.0,83,0.00,,,0.00,130,Wunderground v.1.15,2013-05-13 16:38:00,
2013-05-13 09:48:00,57.8,52.7,29.93,SSW,200,3.0,3.0,83,0.00,,,0.00,160,Wunderground v.1.15,2013-05-13 16:48:00,
2013-05-13 09:57:00,57.8,53.0,29.93,SSW,198,2.0,2.0,84,0.00,,,0.00,179,Wunderground v.1.15,2013-05-13 16:57:00,
2013-05-13 10:07:00,58.3,53.5,29.93,SSW,199,1.0,7.0,84,0.00,,,0.00,202,Wunderground v.1.15,2013-05-13 17:07:00,
2013-05-13 10:17:00,58.9,53.4,29.92,NE,49,2.0,4.0,82,0.00,,,0.00,111,Wunderground v.1.15,2013-05-13 17:17:00,
2013-05-13 10:32:00,58.4,53.3,29.92,South,191,4.0,4.0,83,0.00,,,0.00,348,Wunderground v.1.15,2013-05-13 17:32:00,
2013-05-13 10:42:00,59.0,53.2,29.92,SSW,206,4.0,10.0,81,0.00,,,0.00,201,Wunderground v.1.15,2013-05-13 17:42:00,
2013-05-13 10:47:00,58.9,53.4,29.92,SSW,192,5.0,10.0,82,0.00,,,0.00,187,Wunderground v.1.15,2013-05-13 17:47:00,
2013-05-13 11:02:00,61.2,53.9,29.91,South,176,5.0,5.0,77,0.00,,,0.00,253,Wunderground v.1.15,2013-05-13 18:02:00,
2013-05-13 11:07:00,61.2,53.9,29.91,South,169,4.0,6.0,77,0.00,,,0.00,243,Wunderground v.1.15,2013-05-13 18:07:00,
2013-05-13 11:18:00,60.4,53.9,29.91,SSW,198,3.0,5.0,79,0.00,,,0.00,313,Wunderground v.1.15,2013-05-13 18:18:00,
2013-05-13 11:28:00,60.4,53.5,29.91,South,175,5.0,6.0,78,0.00,,,0.00,322,Wunderground v.1.15,2013-05-13 18:28:00,
2013-05-13 11:38:00,62.0,53.6,29.90,South,191,5.0,5.0,74,0.00,,,0.00,926,Wunderground v.1.15,2013-05-13 18:38:00,
2013-05-13 11:48:00,62.6,53.4,29.89,SSE,161,6.0,7.0,72,0.00,,,0.00,646,Wunderground v.1.15,2013-05-13 18:48:00,
2013-05-13 12:02:00,62.9,53.7,29.89,South,182,5.0,5.0,72,0.00,,,0.00,364,Wunderground v.1.15,2013-05-13 19:02:00,
2013-05-13 12:08:00,62.7,53.5,29.89,SE,128,5.0,8.0,72,0.00,,,0.00,327,Wunderground v.1.15,2013-05-13 19:08:00,
2013-05-13 12:23:00,60.7,52.7,29.89,South,184,7.0,7.0,75,0.00,,,0.00,260,Wunderground v.1.15,2013-05-13 19:23:00,
2013-05-13 12:28:00,60.7,52.7,29.89,SSW,199,5.0,7.0,75,0.00,,,0.00,179,Wunderground v.1.15,2013-05-13 19:28:00,
2013-05-13 12:38:00,60.2,53.3,29.89,South,172,3.0,5.0,78,0.00,,,0.00,336,Wunderground v.1.15,2013-05-13 19:38:00,
2013-05-13 12:48:00,60.1,53.9,29.89,South,191,2.0,3.0,80,0.00,,,0.00,253,Wunderground v.1.15,2013-05-13 19:48:00,
2013-05-13 13:01:00,59.5,53.7,29.88,SSE,161,3.0,3.0,81,0.00,,,0.00,150,Wunderground v.1.15,2013-05-13 20:01:00,
2013-05-13 13:07:00,59.2,53.4,29.88,SSW,198,3.0,3.0,81,0.00,,,0.00,132,Wunderground v.1.15,2013-05-13 20:07:00,
2013-05-13 13:17:00,58.9,53.4,29.89,SSW,193,2.0,2.0,82,0.00,,,0.00,30,Wunderground v.1.15,2013-05-13 20:17:00,
2013-05-13 13:27:00,58.0,53.2,29.89,SW,230,2.0,2.0,84,1.52,,,0.06,11,Wunderground v.1.15,2013-05-13 20:27:00,
2013-05-13 13:37:00,55.3,52.1,29.93,SSW,195,7.0,18.0,89,0.40,,,0.24,14,Wunderground v.1.15,2013-05-13 20:37:00,
2013-05-13 13:48:00,54.5,51.3,29.92,South,179,7.0,13.0,89,0.19,,,0.28,44,Wunderground v.1.15,2013-05-13 20:48:00,
2013-05-13 13:57:00,55.9,53.6,29.92,SSW,199,3.0,6.0,92,0.10,,,0.29,463,Wunderground v.1.15,2013-05-13 20:57:00,
2013-05-13 14:08:00,56.5,53.3,29.91,SSW,200,5.0,10.0,89,0.07,,,0.30,308,Wunderground v.1.15,2013-05-13 21:08:00,
2013-05-13 14:22:00,56.9,53.1,29.91,South,184,5.0,5.0,87,0.07,,,0.32,343,Wunderground v.1.15,2013-05-13 21:22:00,
2013-05-13 14:27:00,57.3,53.1,29.91,SE,126,7.0,10.0,86,0.06,,,0.32,447,Wunderground v.1.15,2013-05-13 21:27:00,
2013-05-13 14:38:00,57.6,52.8,29.91,SSE,148,8.0,8.0,84,0.00,,,0.32,315,Wunderground v.1.15,2013-05-13 21:38:00,
2013-05-13 14:48:00,57.8,52.3,29.91,South,176,8.0,9.0,82,0.00,,,0.32,83,Wunderground v.1.15,2013-05-13 21:48:00,
2013-05-13 15:01:00,56.2,52.4,29.93,South,182,10.0,15.0,87,0.00,,,0.33,229,Wunderground v.1.15,2013-05-13 22:01:00,
2013-05-13 15:07:00,56.3,51.8,29.93,South,175,10.0,15.0,85,0.00,,,0.33,262,Wunderground v.1.15,2013-05-13 22:07:00,
2013-05-13 15:17:00,57.0,51.6,29.93,WNW,285,8.0,9.0,82,0.00,,,0.33,433,Wunderground v.1.15,2013-05-13 22:17:00,
2013-05-13 15:32:00,57.8,51.0,29.92,SSW,195,9.0,16.0,78,0.00,,,0.34,753,Wunderground v.1.15,2013-05-13 22:32:00,
2013-05-13 15:37:00,57.6,49.7,29.92,SSE,167,11.0,16.0,75,0.00,,,0.34,428,Wunderground v.1.15,2013-05-13 22:37:00,
2013-05-13 15:47:00,58.6,49.2,29.93,South,189,11.0,12.0,71,0.00,,,0.34,753,Wunderground v.1.15,2013-05-13 22:47:00,
2013-05-13 15:58:00,58.7,48.9,29.93,SSW,192,11.0,22.0,70,0.00,,,0.34,157,Wunderground v.1.15,2013-05-13 22:58:00,
2013-05-13 16:07:00,56.6,49.8,29.94,SSW,206,9.0,13.0,78,0.00,,,0.34,190,Wunderground v.1.15,2013-05-13 23:07:00,
2013-05-13 16:22:00,56.7,49.9,29.95,South,171,7.0,16.0,78,0.00,,,0.34,310,Wunderground v.1.15,2013-05-13 23:22:00,
2013-05-13 16:27:00,56.3,49.5,29.95,SSE,150,7.0,16.0,78,0.00,,,0.34,216,Wunderground v.1.15,2013-05-13 23:27:00,
2013-05-13 16:38:00,55.0,48.3,29.95,South,175,7.0,18.0,78,0.00,,,0.34,343,Wunderground v.1.15,2013-05-13 23:38:00,
2013-05-13 16:48:00,56.3,48.1,29.95,SSW,193,7.0,16.0,74,0.00,,,0.34,633,Wunderground v.1.15,2013-05-13 23:48:00,
2013-05-13 16:58:00,56.0,48.2,29.95,SSW,209,11.0,12.0,75,0.00,,,0.34,640,Wunderground v.1.15,2013-05-13 23:58:00,
2013-05-13 17:08:00,56.5,46.8,29.97,WSW,257,6.0,8.0,70,0.00,,,0.34,530,Wunderground v.1.15,2013-05-14 00:08:00,
2013-05-13 17:18:00,56.0,46.4,29.98,SW,233,9.0,19.0,70,0.00,,,0.34,540,Wunderground v.1.15,2013-05-14 00:18:00,
2013-05-13 17:28:00,56.0,45.6,29.98,South,189,9.0,15.0,68,0.00,,,0.34,581,Wunderground v.1.15,2013-05-14 00:28:00,
2013-05-13 17:38:00,56.0,44.4,29.98,SE,127,12.0,12.0,65,0.00,,,0.34,463,Wunderground v.1.15,2013-05-14 00:38:00,
2013-05-13 17:53:00,55.6,45.2,29.99,SSW,193,12.0,12.0,68,0.00,,,0.34,389,Wunderground v.1.15,2013-05-14 00:53:00,
2013-05-13 17:58:00,55.9,45.5,29.99,SE,145,10.0,12.0,68,0.00,,,0.34,371,Wunderground v.1.15,2013-05-14 00:58:00,
2013-05-13 18:07:00,55.9,45.1,30.00,SSE,150,10.0,19.0,67,0.00,,,0.35,345,Wunderground v.1.15,2013-05-14 01:07:00,
2013-05-13 18:17:00,55.7,45.3,30.01,SSW,210,10.0,14.0,68,0.00,,,0.35,317,Wunderground v.1.15,2013-05-14 01:17:00,
2013-05-13 18:27:00,55.7,45.3,30.01,South,181,10.0,18.0,68,0.00,,,0.35,287,Wunderground v.1.15,2013-05-14 01:27:00,
2013-05-13 18:37:00,55.7,44.9,30.01,SW,215,10.0,14.0,67,0.00,,,0.35,259,Wunderground v.1.15,2013-05-14 01:37:00,
2013-05-13 18:52:00,56.0,42.7,30.02,SW,233,8.0,8.0,61,0.00,,,0.35,216,Wunderground v.1.15,2013-05-14 01:52:00,
2013-05-13 18:57:00,56.2,42.5,30.02,SSE,162,5.0,8.0,60,0.00,,,0.35,201,Wunderground v.1.15,2013-05-14 01:57:00,
2013-05-13 19:07:00,55.9,41.8,30.04,SE,140,8.0,8.0,59,0.00,,,0.35,174,Wunderground v.1.15,2013-05-14 02:07:00,
2013-05-13 19:17:00,55.6,41.0,30.04,South,172,10.0,18.0,58,0.00,,,0.35,148,Wunderground v.1.15,2013-05-14 02:17:00,
2013-05-13 19:28:00,55.3,40.3,30.04,SSW,195,8.0,12.0,57,0.00,,,0.35,37,Wunderground v.1.15,2013-05-14 02:28:00,
2013-05-13 19:38:00,54.8,39.8,30.06,South,176,8.0,8.0,57,0.00,,,0.35,42,Wunderground v.1.15,2013-05-14 02:38:00,
2013-05-13 19:52:00,54.5,40.9,30.07,ENE,59,5.0,6.0,60,0.00,,,0.35,65,Wunderground v.1.15,2013-05-14 02:52:00,
2013-05-13 19:58:00,54.4,40.8,30.07,SSE,154,5.0,10.0,60,0.00,,,0.35,28,Wunderground v.1.15,2013-05-14 02:58:00,
2013-05-13 20:08:00,54.1,41.4,30.07,South,174,9.0,9.0,62,0.00,,,0.35,33,Wunderground v.1.15,2013-05-14 03:08:00,
2013-05-13 20:18:00,53.6,40.9,30.07,SSW,196,11.0,11.0,62,0.00,,,0.35,14,Wunderground v.1.15,2013-05-14 03:18:00,
2013-05-13 20:28:00,53.3,40.6,30.07,SW,219,12.0,12.0,62,0.00,,,0.35,11,Wunderground v.1.15,2013-05-14 03:28:00,
2013-05-13 20:43:00,53.1,41.2,30.07,SSE,151,11.0,11.0,64,0.00,,,0.35,5,Wunderground v.1.15,2013-05-14 03:43:00,
2013-05-13 20:48:00,52.9,41.4,30.09,South,182,9.0,11.0,65,0.00,,,0.35,0,Wunderground v.1.15,2013-05-14 03:48:00,
2013-05-13 20:58:00,52.5,41.9,30.09,SSW,192,6.0,9.0,67,0.00,,,0.35,0,Wunderground v.1.15,2013-05-14 03:58:00,
2013-05-13 21:01:00,52.3,42.0,30.10,South,184,6.0,6.0,68,0.00,,,0.35,0,Wunderground v.1.15,2013-05-14 04:01:00,
2013-05-13 21:07:00,52.2,42.0,30.10,SSW,200,7.0,12.0,68,0.00,,,0.35,0,Wunderground v.1.15,2013-05-14 04:07:00,
2013-05-13 21:11:00,52.2,42.3,30.10,SSE,168,7.0,7.0,69,0.00,,,0.35,0,Wunderground v.1.15,2013-05-14 04:11:00,
2013-05-13 21:17:00,52.0,42.1,30.11,SE,144,6.0,7.0,69,0.00,,,0.35,0,Wunderground v.1.15,2013-05-14 04:17:00,
2013-05-13 21:22:00,52.0,42.5,30.11,SSW,202,4.0,5.0,70,0.00,,,0.35,0,Wunderground v.1.15,2013-05-14 04:22:00,
2013-05-13 21:27:00,52.0,42.9,30.11,South,178,3.0,5.0,71,0.00,,,0.35,0,Wunderground v.1.15,2013-05-14 04:27:00,
2013-05-13 21:37:00,51.9,42.8,30.12,South,176,4.0,4.0,71,0.00,,,0.35,0,Wunderground v.1.15,2013-05-14 04:37:00,
2013-05-13 21:47:00,51.7,43.0,30.12,SW,216,5.0,11.0,72,0.00,,,0.35,0,Wunderground v.1.15,2013-05-14 04:47:00,
2013-05-13 21:57:00,51.4,42.7,30.12,SSE,152,6.0,7.0,72,0.00,,,0.35,0,Wunderground v.1.15,2013-05-14 04:57:00,
2013-05-13 22:07:00,51.3,42.6,30.12,South,179,5.0,7.0,72,0.00,,,0.35,0,Wunderground v.1.15,2013-05-14 05:07:00,
2013-05-13 22:17:00,51.0,42.6,30.13,South,189,4.0,6.0,73,0.00,,,0.35,0,Wunderground v.1.15,2013-05-14 05:17:00,
2013-05-13 22:27:00,50.8,42.8,30.13,SSE,161,3.0,4.0,74,0.00,,,0.35,0,Wunderground v.1.15,2013-05-14 05:27:00,
2013-05-13 22:38:00,50.7,42.7,30.12,SSE,155,5.0,6.0,74,0.00,,,0.35,0,Wunderground v.1.15,2013-05-14 05:38:00,
2013-05-13 22:48:00,50.5,42.9,30.13,SSW,199,5.0,6.0,75,0.00,,,0.35,0,Wunderground v.1.15,2013-05-14 05:48:00,
2013-05-13 22:58:00,50.4,43.1,30.13,SSW,196,5.0,9.0,76,0.00,,,0.35,0,Wunderground v.1.15,2013-05-14 05:58:00,
2013-05-13 23:08:00,50.1,43.2,30.13,South,188,7.0,7.0,77,0.00,,,0.35,0,Wunderground v.1.15,2013-05-14 06:08:00,
2013-05-13 23:18:00,49.9,43.3,30.13,SSW,208,3.0,6.0,78,0.00,,,0.35,0,Wunderground v.1.15,2013-05-14 06:18:00,
2013-05-13 23:28:00,49.8,43.5,30.13,South,185,3.0,3.0,79,0.00,,,0.35,0,Wunderground v.1.15,2013-05-14 06:28:00,
2013-05-13 23:38:00,49.6,43.7,30.13,SSW,200,4.0,4.0,80,0.00,,,0.35,0,Wunderground v.1.15,2013-05-14 06:38:00,
2013-05-13 23:48:00,49.5,43.9,30.13,SSW,202,3.0,3.0,81,0.00,,,0.35,0,Wunderground v.1.15,2013-05-14 06:48:00,
2013-05-13 23:58:00,49.4,43.5,30.13,SSW,198,4.0,4.0,80,0.00,,,0.35,0,Wunderground v.1.15,2013-05-14 06:58:00,